Lammy — PBRE — position and weather

sailwx.info

Track history (hours):
 
Tides and Currents Weather Stations Pressure Air Temp Water Temp Dewpoint Dewpoint Depression Visibility Wind Speed Wind Dir Waves Ship Positions

Lammy

Last reported at 2014-Sep-18 03:31 UTC. Time now 2014-Sep-18 19:46 UTC.
Position N 53°55' E 000°57'.

Length 95 m; draft 4 m.

Type: Cargo ship. MMSI: 245391000.

Date/timePositionNaut miles runAvg speedWind from/ knotsBaromVisibWave heightAir tempDewpointWater temp
2014-Sep-18 03:31N 53°55' E 000°57'1712.1
2014-Sep-18 02:08N 53°45' E 000°35'712.0
2014-Sep-18 01:32N 53°40' E 000°26'1110.9
2014-Sep-18 00:33N 53°33' E 000°13'1010.4
2014-Sep-17 23:34N 53°36' W 000°03'10 9.6
2014-Sep-17 22:33N 53°43' W 000°15'2 2.5
2014-Sep-17 21:33N 53°45' W 000°17'0 0.0
2014-Sep-17 20:31N 53°45' W 000°17'0 0.0
2014-Sep-17 19:31N 53°45' W 000°17'0 0.0
2014-Sep-17 18:31N 53°45' W 000°17'0 0.0
2014-Sep-17 17:25N 53°45' W 000°17'0 0.0
2014-Sep-17 16:25N 53°45' W 000°17'0 0.0
2014-Sep-17 15:25N 53°45' W 000°17'0 0.0
2014-Sep-17 14:25N 53°45' W 000°17'0 0.0
2014-Sep-17 13:28N 53°45' W 000°17'0 0.0
2014-Sep-17 12:28N 53°45' W 000°17'0 0.0
2014-Sep-17 11:28N 53°45' W 000°17'0 0.0
2014-Sep-17 10:28N 53°45' W 000°17'0 0.0
2014-Sep-17 09:31N 53°45' W 000°17'0 0.0
2014-Sep-17 08:13N 53°45' W 000°17'0 0.0
2014-Sep-17 07:22N 53°45' W 000°17'0 0.0
2014-Sep-17 06:19N 53°45' W 000°17'0 0.0
2014-Sep-17 05:31N 53°45' W 000°17'0 0.0
2014-Sep-17 04:22N 53°45' W 000°17'0 0.0
2014-Sep-17 03:19N 53°45' W 000°17'0 0.0
2014-Sep-17 02:22N 53°45' W 000°17'0 0.0
2014-Sep-17 01:25N 53°45' W 000°17'0 0.0
2014-Sep-17 00:25N 53°45' W 000°17'0 0.0
2014-Sep-16 23:28N 53°45' W 000°17'0 0.0
2014-Sep-16 22:28N 53°45' W 000°17'0 0.0
2014-Sep-16 21:33N 53°45' W 000°17'1 0.5
2014-Sep-16 20:33N 53°44' W 000°17'1 0.6
2014-Sep-16 19:34N 53°45' W 000°16'0 0.0
2014-Sep-16 18:33N 53°45' W 000°16'0 0.0
2014-Sep-16 17:32N 53°45' W 000°16'0 0.0
2014-Sep-16 16:33N 53°45' W 000°16'0 0.0
2014-Sep-16 15:33N 53°45' W 000°16'0 0.0
2014-Sep-16 14:33N 53°45' W 000°16'0 0.0
2014-Sep-16 13:33N 53°45' W 000°16'0 0.0
2014-Sep-16 12:33N 53°45' W 000°16'0 0.0
2014-Sep-16 11:33N 53°45' W 000°16'0 0.0
2014-Sep-16 10:33N 53°45' W 000°16'0 0.0
2014-Sep-16 09:34N 53°45' W 000°16'0 0.0
2014-Sep-16 08:33N 53°45' W 000°16'0 0.0
2014-Sep-16 07:33N 53°45' W 000°16'0 0.0
2014-Sep-16 06:33N 53°45' W 000°16'0 0.0
2014-Sep-16 05:33N 53°45' W 000°16'0 0.0
2014-Sep-16 04:33N 53°45' W 000°16'0 0.0
2014-Sep-16 03:33N 53°45' W 000°16'0 0.0
2014-Sep-16 02:31N 53°45' W 000°16'0 0.0
2014-Sep-16 01:32N 53°45' W 000°16'0 0.0
2014-Sep-16 00:33N 53°45' W 000°16'0 0.0
2014-Sep-15 23:33N 53°45' W 000°16'0 0.3
2014-Sep-15 22:33N 53°45' W 000°16'5 4.5
2014-Sep-15 21:34N 53°41' W 000°12'1211.8
2014-Sep-15 20:33N 53°35' E 000°05'1110.3
2014-Sep-15 19:32N 53°38' E 000°21'43512.3
2014-Sep-14 08:16N 57°40' E 011°04'912.7
2014-Sep-14 07:33N 57°34' E 011°16'1312.7
2014-Sep-14 06:33N 57°23' E 011°29'1913.0
2014-Sep-14 05:06N 57°05' E 011°41'713.0
2014-Sep-14 04:32N 56°58' E 011°47'1312.6
2014-Sep-14 03:31N 56°47' E 011°58'1312.3
2014-Sep-14 02:30N 56°36' E 012°07'1212.3
2014-Sep-14 01:33N 56°25' E 012°16'4912.2
2014-Sep-13 21:34N 55°39' E 012°42'1211.8
2014-Sep-13 20:34N 55°27' E 012°42'5510.6
2014-Sep-13 15:22N 55°14' E 014°16'1512.4
2014-Sep-13 14:12N 55°25' E 014°34'12912.0
2014-Sep-13 03:30N 56°55' E 017°17'1212.6
2014-Sep-13 02:33N 57°07' E 017°25'1512.4
2014-Sep-13 01:20N 57°21' E 017°36'  
2014-Sep-08 06:18N 58°29' E 018°58'1112.3
2014-Sep-08 05:25N 58°20' E 018°48'1112.1
2014-Sep-08 04:30N 58°11' E 018°37'1111.8
2014-Sep-08 03:33N 58°01' E 018°26'  
Track history (hours):
 
Tides and Currents Weather Stations Pressure Air Temp Water Temp Dewpoint Dewpoint Depression Visibility Wind Speed Wind Dir Waves Ship Positions

Lammy

Last reported at 2014-Sep-18 03:31 UTC. Time now 2014-Sep-18 19:46 UTC.
Position N 53°55' E 000°57'.

Length 95 m; draft 4 m.

Type: Cargo ship. MMSI: 245391000.

Date/timePositionNaut miles runAvg speedWind from/ knotsBaromVisibWave heightAir tempDewpointWater temp
2014-Sep-18 03:31N 53°55' E 000°57'1712.1
2014-Sep-18 02:08N 53°45' E 000°35'712.0
2014-Sep-18 01:32N 53°40' E 000°26'1110.9
2014-Sep-18 00:33N 53°33' E 000°13'1010.4
2014-Sep-17 23:34N 53°36' W 000°03'10 9.6
2014-Sep-17 22:33N 53°43' W 000°15'2 2.5
2014-Sep-17 21:33N 53°45' W 000°17'0 0.0
2014-Sep-17 20:31N 53°45' W 000°17'0 0.0
2014-Sep-17 19:31N 53°45' W 000°17'0 0.0
2014-Sep-17 18:31N 53°45' W 000°17'0 0.0
2014-Sep-17 17:25N 53°45' W 000°17'0 0.0
2014-Sep-17 16:25N 53°45' W 000°17'0 0.0
2014-Sep-17 15:25N 53°45' W 000°17'0 0.0
2014-Sep-17 14:25N 53°45' W 000°17'0 0.0
2014-Sep-17 13:28N 53°45' W 000°17'0 0.0
2014-Sep-17 12:28N 53°45' W 000°17'0 0.0
2014-Sep-17 11:28N 53°45' W 000°17'0 0.0
2014-Sep-17 10:28N 53°45' W 000°17'0 0.0
2014-Sep-17 09:31N 53°45' W 000°17'0 0.0
2014-Sep-17 08:13N 53°45' W 000°17'0 0.0
2014-Sep-17 07:22N 53°45' W 000°17'0 0.0
2014-Sep-17 06:19N 53°45' W 000°17'0 0.0
2014-Sep-17 05:31N 53°45' W 000°17'0 0.0
2014-Sep-17 04:22N 53°45' W 000°17'0 0.0
2014-Sep-17 03:19N 53°45' W 000°17'0 0.0
2014-Sep-17 02:22N 53°45' W 000°17'0 0.0
2014-Sep-17 01:25N 53°45' W 000°17'0 0.0
2014-Sep-17 00:25N 53°45' W 000°17'0 0.0
2014-Sep-16 23:28N 53°45' W 000°17'0 0.0
2014-Sep-16 22:28N 53°45' W 000°17'0 0.0
2014-Sep-16 21:33N 53°45' W 000°17'1 0.5
2014-Sep-16 20:33N 53°44' W 000°17'1 0.6
2014-Sep-16 19:34N 53°45' W 000°16'0 0.0
2014-Sep-16 18:33N 53°45' W 000°16'0 0.0
2014-Sep-16 17:32N 53°45' W 000°16'0 0.0
2014-Sep-16 16:33N 53°45' W 000°16'0 0.0
2014-Sep-16 15:33N 53°45' W 000°16'0 0.0
2014-Sep-16 14:33N 53°45' W 000°16'0 0.0
2014-Sep-16 13:33N 53°45' W 000°16'0 0.0
2014-Sep-16 12:33N 53°45' W 000°16'0 0.0
2014-Sep-16 11:33N 53°45' W 000°16'0 0.0
2014-Sep-16 10:33N 53°45' W 000°16'0 0.0
2014-Sep-16 09:34N 53°45' W 000°16'0 0.0
2014-Sep-16 08:33N 53°45' W 000°16'0 0.0
2014-Sep-16 07:33N 53°45' W 000°16'0 0.0
2014-Sep-16 06:33N 53°45' W 000°16'0 0.0
2014-Sep-16 05:33N 53°45' W 000°16'0 0.0
2014-Sep-16 04:33N 53°45' W 000°16'0 0.0
2014-Sep-16 03:33N 53°45' W 000°16'0 0.0
2014-Sep-16 02:31N 53°45' W 000°16'0 0.0
2014-Sep-16 01:32N 53°45' W 000°16'0 0.0
2014-Sep-16 00:33N 53°45' W 000°16'0 0.0
2014-Sep-15 23:33N 53°45' W 000°16'0 0.3
2014-Sep-15 22:33N 53°45' W 000°16'5 4.5
2014-Sep-15 21:34N 53°41' W 000°12'1211.8
2014-Sep-15 20:33N 53°35' E 000°05'1110.3
2014-Sep-15 19:32N 53°38' E 000°21'43512.3
2014-Sep-14 08:16N 57°40' E 011°04'912.7
2014-Sep-14 07:33N 57°34' E 011°16'1312.7
2014-Sep-14 06:33N 57°23' E 011°29'1913.0
2014-Sep-14 05:06N 57°05' E 011°41'713.0
2014-Sep-14 04:32N 56°58' E 011°47'1312.6
2014-Sep-14 03:31N 56°47' E 011°58'1312.3
2014-Sep-14 02:30N 56°36' E 012°07'1212.3
2014-Sep-14 01:33N 56°25' E 012°16'4912.2
2014-Sep-13 21:34N 55°39' E 012°42'1211.8
2014-Sep-13 20:34N 55°27' E 012°42'5510.6
2014-Sep-13 15:22N 55°14' E 014°16'1512.4
2014-Sep-13 14:12N 55°25' E 014°34'12912.0
2014-Sep-13 03:30N 56°55' E 017°17'1212.6
2014-Sep-13 02:33N 57°07' E 017°25'1512.4
2014-Sep-13 01:20N 57°21' E 017°36'  
2014-Sep-08 06:18N 58°29' E 018°58'1112.3
2014-Sep-08 05:25N 58°20' E 018°48'1112.1
2014-Sep-08 04:30N 58°11' E 018°37'1111.8
2014-Sep-08 03:33N 58°01' E 018°26'  

Dump ship's entire track history